sensor_id;sensor_type;location;lat;lon;timestamp;P1;durP1;ratioP1;P2;durP2;ratioP2
49824;SDS011;35714;55.708;37.478;2022-11-15T00:01:14;2.95;;;0.50;;
49824;SDS011;35714;55.708;37.478;2022-11-15T00:04:01;1.98;;;0.60;;
49824;SDS011;35714;55.708;37.478;2022-11-15T00:06:45;4.65;;;0.55;;
49824;SDS011;35714;55.708;37.478;2022-11-15T00:09:29;3.30;;;0.32;;
49824;SDS011;35714;55.708;37.478;2022-11-15T00:12:13;2.15;;;0.55;;
49824;SDS011;35714;55.708;37.478;2022-11-15T00:14:58;3.00;;;0.60;;
49824;SDS011;35714;55.708;37.478;2022-11-15T00:17:42;2.83;;;0.50;;
49824;SDS011;35714;55.708;37.478;2022-11-15T00:20:26;2.75;;;0.52;;
49824;SDS011;35714;55.708;37.478;2022-11-15T00:23:10;2.85;;;0.47;;
49824;SDS011;35714;55.708;37.478;2022-11-15T00:25:55;2.55;;;0.60;;
49824;SDS011;35714;55.708;37.478;2022-11-15T00:28:41;0.73;;;0.30;;
49824;SDS011;35714;55.708;37.478;2022-11-15T00:31:25;2.60;;;0.63;;
49824;SDS011;35714;55.708;37.478;2022-11-15T00:34:10;3.90;;;0.40;;
49824;SDS011;35714;55.708;37.478;2022-11-15T00:36:54;1.98;;;0.40;;
49824;SDS011;35714;55.708;37.478;2022-11-15T00:39:38;2.15;;;0.50;;
49824;SDS011;35714;55.708;37.478;2022-11-15T00:42:22;2.63;;;0.50;;
49824;SDS011;35714;55.708;37.478;2022-11-15T00:45:07;1.48;;;0.40;;
49824;SDS011;35714;55.708;37.478;2022-11-15T00:47:51;1.27;;;0.60;;
49824;SDS011;35714;55.708;37.478;2022-11-15T00:50:36;3.22;;;0.50;;
49824;SDS011;35714;55.708;37.478;2022-11-15T00:53:20;3.08;;;0.45;;
49824;SDS011;35714;55.708;37.478;2022-11-15T00:56:04;2.65;;;0.57;;
49824;SDS011;35714;55.708;37.478;2022-11-15T00:58:49;1.85;;;0.40;;
49824;SDS011;35714;55.708;37.478;2022-11-15T01:01:33;1.48;;;0.40;;
49824;SDS011;35714;55.708;37.478;2022-11-15T01:04:17;2.42;;;0.50;;
49824;SDS011;35714;55.708;37.478;2022-11-15T01:07:02;3.55;;;0.80;;
49824;SDS011;35714;55.708;37.478;2022-11-15T01:09:46;5.80;;;0.70;;
49824;SDS011;35714;55.708;37.478;2022-11-15T01:12:30;2.40;;;0.52;;
49824;SDS011;35714;55.708;37.478;2022-11-15T01:15:15;4.50;;;0.60;;
49824;SDS011;35714;55.708;37.478;2022-11-15T01:18:00;2.17;;;0.47;;
49824;SDS011;35714;55.708;37.478;2022-11-15T01:20:44;2.35;;;0.38;;
49824;SDS011;35714;55.708;37.478;2022-11-15T01:23:28;2.00;;;0.50;;
49824;SDS011;35714;55.708;37.478;2022-11-15T01:26:13;2.70;;;0.60;;
49824;SDS011;35714;55.708;37.478;2022-11-15T01:28:58;7.78;;;0.80;;
49824;SDS011;35714;55.708;37.478;2022-11-15T01:31:42;2.55;;;0.55;;
49824;SDS011;35714;55.708;37.478;2022-11-15T01:34:27;1.92;;;0.40;;
49824;SDS011;35714;55.708;37.478;2022-11-15T01:37:11;2.55;;;0.70;;
49824;SDS011;35714;55.708;37.478;2022-11-15T01:39:55;4.05;;;0.73;;
49824;SDS011;35714;55.708;37.478;2022-11-15T01:42:40;3.25;;;0.60;;
49824;SDS011;35714;55.708;37.478;2022-11-15T01:45:24;1.77;;;0.50;;
49824;SDS011;35714;55.708;37.478;2022-11-15T01:48:09;2.72;;;0.50;;
49824;SDS011;35714;55.708;37.478;2022-11-15T01:50:54;3.90;;;0.57;;
49824;SDS011;35714;55.708;37.478;2022-11-15T01:53:39;3.25;;;0.80;;
49824;SDS011;35714;55.708;37.478;2022-11-15T01:56:26;3.67;;;0.90;;
49824;SDS011;35714;55.708;37.478;2022-11-15T01:59:13;1.92;;;0.40;;
49824;SDS011;35714;55.708;37.478;2022-11-15T02:01:58;5.53;;;1.20;;
49824;SDS011;35714;55.708;37.478;2022-11-15T02:04:44;5.55;;;0.75;;
49824;SDS011;35714;55.708;37.478;2022-11-15T02:07:30;3.00;;;0.50;;
49824;SDS011;35714;55.708;37.478;2022-11-15T02:10:19;3.20;;;0.50;;
49824;SDS011;35714;55.708;37.478;2022-11-15T02:13:05;2.63;;;0.57;;
49824;SDS011;35714;55.708;37.478;2022-11-15T02:16:02;4.50;;;0.50;;
49824;SDS011;35714;55.708;37.478;2022-11-15T02:19:07;3.15;;;0.57;;
49824;SDS011;35714;55.708;37.478;2022-11-15T02:25:03;2.70;;;0.50;;
49824;SDS011;35714;55.708;37.478;2022-11-15T02:28:10;2.28;;;0.57;;
49824;SDS011;35714;55.708;37.478;2022-11-15T02:36:57;2.00;;;0.30;;
49824;SDS011;35714;55.708;37.478;2022-11-15T02:43:08;3.05;;;0.50;;
49824;SDS011;35714;55.708;37.478;2022-11-15T02:49:42;2.50;;;0.60;;
49824;SDS011;35714;55.708;37.478;2022-11-15T02:52:31;3.55;;;0.70;;
49824;SDS011;35714;55.708;37.478;2022-11-15T02:55:26;3.22;;;0.82;;
49824;SDS011;35714;55.708;37.478;2022-11-15T03:04:57;3.95;;;0.55;;
49824;SDS011;35714;55.708;37.478;2022-11-15T03:07:56;4.70;;;0.68;;
49824;SDS011;35714;55.708;37.478;2022-11-15T03:20:10;2.78;;;0.73;;
49824;SDS011;35714;55.708;37.478;2022-11-15T03:22:59;3.85;;;0.77;;
49824;SDS011;35714;55.708;37.478;2022-11-15T03:25:47;3.15;;;0.70;;
49824;SDS011;35714;55.708;37.478;2022-11-15T03:28:36;2.58;;;0.35;;
49824;SDS011;35714;55.708;37.478;2022-11-15T03:31:21;4.13;;;0.70;;
49824;SDS011;35714;55.708;37.478;2022-11-15T03:34:47;3.10;;;0.60;;
49824;SDS011;35714;55.708;37.478;2022-11-15T03:40:59;2.38;;;0.45;;
49824;SDS011;35714;55.708;37.478;2022-11-15T03:43:47;4.07;;;0.80;;
49824;SDS011;35714;55.708;37.478;2022-11-15T03:49:51;4.75;;;0.68;;
49824;SDS011;35714;55.708;37.478;2022-11-15T03:52:39;1.92;;;0.52;;
49824;SDS011;35714;55.708;37.478;2022-11-15T03:55:24;3.88;;;0.55;;
49824;SDS011;35714;55.708;37.478;2022-11-15T03:58:09;3.30;;;1.08;;
49824;SDS011;35714;55.708;37.478;2022-11-15T04:00:53;5.22;;;0.70;;
49824;SDS011;35714;55.708;37.478;2022-11-15T04:03:37;3.33;;;0.50;;
49824;SDS011;35714;55.708;37.478;2022-11-15T04:06:21;4.35;;;0.80;;
49824;SDS011;35714;55.708;37.478;2022-11-15T04:09:05;2.70;;;0.63;;
49824;SDS011;35714;55.708;37.478;2022-11-15T04:11:49;4.95;;;0.50;;
49824;SDS011;35714;55.708;37.478;2022-11-15T04:14:34;4.63;;;0.68;;
49824;SDS011;35714;55.708;37.478;2022-11-15T04:17:18;4.85;;;1.15;;
49824;SDS011;35714;55.708;37.478;2022-11-15T04:20:07;2.10;;;0.63;;
49824;SDS011;35714;55.708;37.478;2022-11-15T04:23:29;4.65;;;0.70;;
49824;SDS011;35714;55.708;37.478;2022-11-15T04:26:33;3.33;;;0.77;;
49824;SDS011;35714;55.708;37.478;2022-11-15T04:29:17;1.90;;;0.38;;
49824;SDS011;35714;55.708;37.478;2022-11-15T04:32:19;3.58;;;0.90;;
49824;SDS011;35714;55.708;37.478;2022-11-15T04:35:04;4.57;;;0.68;;
49824;SDS011;35714;55.708;37.478;2022-11-15T04:37:48;1.75;;;0.57;;
49824;SDS011;35714;55.708;37.478;2022-11-15T04:40:33;3.05;;;0.60;;
49824;SDS011;35714;55.708;37.478;2022-11-15T04:43:17;3.47;;;0.57;;
49824;SDS011;35714;55.708;37.478;2022-11-15T04:46:02;2.17;;;0.70;;
49824;SDS011;35714;55.708;37.478;2022-11-15T04:48:46;2.03;;;0.55;;
49824;SDS011;35714;55.708;37.478;2022-11-15T04:51:30;3.97;;;0.77;;
49824;SDS011;35714;55.708;37.478;2022-11-15T04:54:14;7.15;;;0.95;;
49824;SDS011;35714;55.708;37.478;2022-11-15T04:56:58;5.13;;;1.08;;
49824;SDS011;35714;55.708;37.478;2022-11-15T04:59:43;4.32;;;1.25;;
49824;SDS011;35714;55.708;37.478;2022-11-15T05:02:30;5.78;;;0.85;;
49824;SDS011;35714;55.708;37.478;2022-11-15T05:05:34;3.53;;;0.77;;
49824;SDS011;35714;55.708;37.478;2022-11-15T05:08:18;4.50;;;0.65;;
49824;SDS011;35714;55.708;37.478;2022-11-15T05:11:02;3.85;;;0.82;;
49824;SDS011;35714;55.708;37.478;2022-11-15T05:13:47;1.70;;;0.43;;
49824;SDS011;35714;55.708;37.478;2022-11-15T05:16:31;5.60;;;1.40;;
49824;SDS011;35714;55.708;37.478;2022-11-15T05:19:15;9.77;;;1.25;;
49824;SDS011;35714;55.708;37.478;2022-11-15T05:21:59;4.65;;;0.75;;
49824;SDS011;35714;55.708;37.478;2022-11-15T05:24:43;2.13;;;0.60;;
49824;SDS011;35714;55.708;37.478;2022-11-15T05:27:29;3.27;;;0.73;;
49824;SDS011;35714;55.708;37.478;2022-11-15T05:30:13;2.90;;;0.90;;
49824;SDS011;35714;55.708;37.478;2022-11-15T05:32:58;4.78;;;0.90;;
49824;SDS011;35714;55.708;37.478;2022-11-15T05:35:45;5.53;;;0.73;;
49824;SDS011;35714;55.708;37.478;2022-11-15T05:38:34;10.35;;;2.03;;
49824;SDS011;35714;55.708;37.478;2022-11-15T05:41:19;5.00;;;0.90;;
49824;SDS011;35714;55.708;37.478;2022-11-15T05:44:10;4.22;;;0.80;;
49824;SDS011;35714;55.708;37.478;2022-11-15T05:46:57;3.17;;;0.80;;
49824;SDS011;35714;55.708;37.478;2022-11-15T05:49:42;2.65;;;0.52;;
49824;SDS011;35714;55.708;37.478;2022-11-15T05:52:29;3.10;;;0.65;;
49824;SDS011;35714;55.708;37.478;2022-11-15T05:55:18;4.53;;;0.90;;
49824;SDS011;35714;55.708;37.478;2022-11-15T05:58:02;4.68;;;0.90;;
49824;SDS011;35714;55.708;37.478;2022-11-15T06:00:47;3.35;;;0.80;;
49824;SDS011;35714;55.708;37.478;2022-11-15T06:03:32;4.25;;;0.90;;
49824;SDS011;35714;55.708;37.478;2022-11-15T06:06:16;4.00;;;0.88;;
49824;SDS011;35714;55.708;37.478;2022-11-15T06:09:00;3.15;;;0.75;;
49824;SDS011;35714;55.708;37.478;2022-11-15T06:11:44;3.75;;;0.63;;
49824;SDS011;35714;55.708;37.478;2022-11-15T06:14:29;5.47;;;0.80;;
49824;SDS011;35714;55.708;37.478;2022-11-15T06:17:13;8.45;;;2.88;;
49824;SDS011;35714;55.708;37.478;2022-11-15T06:19:57;6.93;;;1.10;;
49824;SDS011;35714;55.708;37.478;2022-11-15T06:22:42;3.53;;;0.80;;
49824;SDS011;35714;55.708;37.478;2022-11-15T06:25:26;5.05;;;0.90;;
49824;SDS011;35714;55.708;37.478;2022-11-15T06:28:11;4.22;;;1.10;;
49824;SDS011;35714;55.708;37.478;2022-11-15T06:30:56;4.47;;;0.77;;
49824;SDS011;35714;55.708;37.478;2022-11-15T06:33:46;3.60;;;0.70;;
49824;SDS011;35714;55.708;37.478;2022-11-15T06:36:30;4.40;;;0.80;;
49824;SDS011;35714;55.708;37.478;2022-11-15T06:39:14;4.22;;;1.05;;
49824;SDS011;35714;55.708;37.478;2022-11-15T06:41:59;3.45;;;1.02;;
49824;SDS011;35714;55.708;37.478;2022-11-15T06:44:43;5.90;;;0.80;;
49824;SDS011;35714;55.708;37.478;2022-11-15T06:47:29;3.50;;;0.85;;
49824;SDS011;35714;55.708;37.478;2022-11-15T06:50:13;5.45;;;0.88;;
49824;SDS011;35714;55.708;37.478;2022-11-15T06:53:01;3.95;;;1.27;;
49824;SDS011;35714;55.708;37.478;2022-11-15T06:55:47;10.45;;;0.98;;
49824;SDS011;35714;55.708;37.478;2022-11-15T06:58:31;3.75;;;1.17;;
49824;SDS011;35714;55.708;37.478;2022-11-15T07:01:16;5.72;;;1.15;;
49824;SDS011;35714;55.708;37.478;2022-11-15T07:04:00;4.80;;;0.95;;
49824;SDS011;35714;55.708;37.478;2022-11-15T07:06:46;4.80;;;1.45;;
49824;SDS011;35714;55.708;37.478;2022-11-15T07:09:33;5.03;;;1.10;;
49824;SDS011;35714;55.708;37.478;2022-11-15T07:12:17;6.95;;;0.98;;
49824;SDS011;35714;55.708;37.478;2022-11-15T07:15:01;7.65;;;1.23;;
49824;SDS011;35714;55.708;37.478;2022-11-15T07:17:46;4.15;;;0.95;;
49824;SDS011;35714;55.708;37.478;2022-11-15T07:20:30;3.55;;;0.82;;
49824;SDS011;35714;55.708;37.478;2022-11-15T07:23:14;3.42;;;0.82;;
49824;SDS011;35714;55.708;37.478;2022-11-15T07:25:59;3.78;;;1.20;;
49824;SDS011;35714;55.708;37.478;2022-11-15T07:28:44;6.67;;;0.80;;
49824;SDS011;35714;55.708;37.478;2022-11-15T07:31:28;7.18;;;1.60;;
49824;SDS011;35714;55.708;37.478;2022-11-15T07:34:12;6.22;;;1.20;;
49824;SDS011;35714;55.708;37.478;2022-11-15T07:36:57;5.22;;;1.00;;
49824;SDS011;35714;55.708;37.478;2022-11-15T07:39:42;4.10;;;1.08;;
49824;SDS011;35714;55.708;37.478;2022-11-15T07:42:27;4.35;;;1.13;;
49824;SDS011;35714;55.708;37.478;2022-11-15T07:45:49;5.90;;;1.35;;
49824;SDS011;35714;55.708;37.478;2022-11-15T07:48:33;3.17;;;0.93;;
49824;SDS011;35714;55.708;37.478;2022-11-15T07:51:17;7.93;;;1.63;;
49824;SDS011;35714;55.708;37.478;2022-11-15T07:54:02;8.68;;;2.00;;
49824;SDS011;35714;55.708;37.478;2022-11-15T07:56:46;4.40;;;1.27;;
49824;SDS011;35714;55.708;37.478;2022-11-15T07:59:31;9.20;;;1.50;;
49824;SDS011;35714;55.708;37.478;2022-11-15T08:02:15;5.90;;;1.80;;
49824;SDS011;35714;55.708;37.478;2022-11-15T08:05:01;6.35;;;1.23;;
49824;SDS011;35714;55.708;37.478;2022-11-15T08:07:46;6.40;;;1.30;;
49824;SDS011;35714;55.708;37.478;2022-11-15T08:10:31;6.40;;;1.25;;
49824;SDS011;35714;55.708;37.478;2022-11-15T08:13:15;5.20;;;1.48;;
49824;SDS011;35714;55.708;37.478;2022-11-15T08:16:00;7.03;;;1.50;;
49824;SDS011;35714;55.708;37.478;2022-11-15T08:18:45;7.00;;;1.67;;
49824;SDS011;35714;55.708;37.478;2022-11-15T08:21:30;5.18;;;1.60;;
49824;SDS011;35714;55.708;37.478;2022-11-15T08:24:14;4.85;;;1.13;;
49824;SDS011;35714;55.708;37.478;2022-11-15T08:26:58;7.53;;;1.67;;
49824;SDS011;35714;55.708;37.478;2022-11-15T08:29:43;4.95;;;1.20;;
49824;SDS011;35714;55.708;37.478;2022-11-15T08:32:30;7.05;;;1.90;;
49824;SDS011;35714;55.708;37.478;2022-11-15T08:35:15;10.25;;;1.40;;
49824;SDS011;35714;55.708;37.478;2022-11-15T08:38:00;8.98;;;2.10;;
49824;SDS011;35714;55.708;37.478;2022-11-15T08:40:44;9.18;;;1.60;;
49824;SDS011;35714;55.708;37.478;2022-11-15T08:43:29;11.07;;;1.90;;
49824;SDS011;35714;55.708;37.478;2022-11-15T08:46:13;6.28;;;1.10;;
49824;SDS011;35714;55.708;37.478;2022-11-15T08:50:55;4.38;;;1.55;;
49824;SDS011;35714;55.708;37.478;2022-11-15T08:53:40;5.78;;;1.60;;
49824;SDS011;35714;55.708;37.478;2022-11-15T08:56:25;4.72;;;1.50;;
49824;SDS011;35714;55.708;37.478;2022-11-15T08:59:09;4.00;;;1.23;;
49824;SDS011;35714;55.708;37.478;2022-11-15T09:01:53;12.57;;;1.60;;
49824;SDS011;35714;55.708;37.478;2022-11-15T09:04:39;8.90;;;1.30;;
49824;SDS011;35714;55.708;37.478;2022-11-15T09:07:28;4.75;;;1.25;;
49824;SDS011;35714;55.708;37.478;2022-11-15T09:10:14;4.10;;;1.55;;
49824;SDS011;35714;55.708;37.478;2022-11-15T09:12:59;5.80;;;1.17;;
49824;SDS011;35714;55.708;37.478;2022-11-15T09:15:43;6.78;;;1.38;;
49824;SDS011;35714;55.708;37.478;2022-11-15T09:18:27;4.55;;;1.33;;
49824;SDS011;35714;55.708;37.478;2022-11-15T09:21:12;5.90;;;1.67;;
49824;SDS011;35714;55.708;37.478;2022-11-15T09:23:56;3.42;;;1.15;;
49824;SDS011;35714;55.708;37.478;2022-11-15T09:26:40;5.90;;;1.40;;
49824;SDS011;35714;55.708;37.478;2022-11-15T09:29:25;6.47;;;1.10;;
49824;SDS011;35714;55.708;37.478;2022-11-15T09:32:09;7.95;;;1.52;;
49824;SDS011;35714;55.708;37.478;2022-11-15T09:34:53;5.05;;;1.58;;
49824;SDS011;35714;55.708;37.478;2022-11-15T09:37:37;5.50;;;1.65;;
49824;SDS011;35714;55.708;37.478;2022-11-15T09:40:22;5.72;;;1.67;;
49824;SDS011;35714;55.708;37.478;2022-11-15T09:49:40;5.00;;;1.15;;
49824;SDS011;35714;55.708;37.478;2022-11-15T09:54:44;3.70;;;1.30;;
49824;SDS011;35714;55.708;37.478;2022-11-15T09:57:14;5.45;;;1.10;;
49824;SDS011;35714;55.708;37.478;2022-11-15T10:05:16;6.35;;;1.15;;
49824;SDS011;35714;55.708;37.478;2022-11-15T10:10:48;5.20;;;1.20;;
49824;SDS011;35714;55.708;37.478;2022-11-15T10:13:16;12.38;;;2.90;;
49824;SDS011;35714;55.708;37.478;2022-11-15T10:15:48;9.98;;;2.17;;
49824;SDS011;35714;55.708;37.478;2022-11-15T10:20:48;7.10;;;1.27;;
49824;SDS011;35714;55.708;37.478;2022-11-15T10:23:17;5.75;;;1.00;;
49824;SDS011;35714;55.708;37.478;2022-11-15T10:25:45;7.47;;;1.40;;
49824;SDS011;35714;55.708;37.478;2022-11-15T10:28:19;4.93;;;1.30;;
49824;SDS011;35714;55.708;37.478;2022-11-15T10:33:31;7.70;;;1.48;;
49824;SDS011;35714;55.708;37.478;2022-11-15T10:36:22;5.13;;;1.38;;
49824;SDS011;35714;55.708;37.478;2022-11-15T10:44:07;6.28;;;1.40;;
49824;SDS011;35714;55.708;37.478;2022-11-15T10:47:03;6.07;;;1.70;;
49824;SDS011;35714;55.708;37.478;2022-11-15T10:49:32;5.53;;;1.40;;
49824;SDS011;35714;55.708;37.478;2022-11-15T10:57:31;5.07;;;1.45;;
49824;SDS011;35714;55.708;37.478;2022-11-15T11:00:46;7.60;;;1.80;;
49824;SDS011;35714;55.708;37.478;2022-11-15T11:13:11;7.20;;;2.00;;
49824;SDS011;35714;55.708;37.478;2022-11-15T11:15:46;6.90;;;1.60;;
49824;SDS011;35714;55.708;37.478;2022-11-15T11:18:22;6.32;;;1.30;;
49824;SDS011;35714;55.708;37.478;2022-11-15T11:21:10;5.78;;;1.63;;
49824;SDS011;35714;55.708;37.478;2022-11-15T11:24:03;4.35;;;1.67;;
49824;SDS011;35714;55.708;37.478;2022-11-15T11:27:43;12.18;;;2.35;;
49824;SDS011;35714;55.708;37.478;2022-11-15T11:49:01;2.58;;;1.00;;
49824;SDS011;35714;55.708;37.478;2022-11-15T11:54:16;5.95;;;1.67;;
49824;SDS011;35714;55.708;37.478;2022-11-15T11:56:47;5.45;;;1.48;;
49824;SDS011;35714;55.708;37.478;2022-11-15T12:01:42;7.47;;;1.75;;
49824;SDS011;35714;55.708;37.478;2022-11-15T12:04:20;7.45;;;1.67;;
49824;SDS011;35714;55.708;37.478;2022-11-15T12:06:53;8.50;;;2.15;;
49824;SDS011;35714;55.708;37.478;2022-11-15T12:15:15;7.22;;;1.67;;
49824;SDS011;35714;55.708;37.478;2022-11-15T12:17:55;7.78;;;1.67;;
49824;SDS011;35714;55.708;37.478;2022-11-15T12:20:23;6.13;;;1.40;;
49824;SDS011;35714;55.708;37.478;2022-11-15T12:23:03;13.65;;;1.70;;
49824;SDS011;35714;55.708;37.478;2022-11-15T12:31:04;9.10;;;2.28;;
49824;SDS011;35714;55.708;37.478;2022-11-15T12:33:38;6.93;;;1.80;;
49824;SDS011;35714;55.708;37.478;2022-11-15T12:36:11;7.15;;;1.90;;
49824;SDS011;35714;55.708;37.478;2022-11-15T12:41:23;7.45;;;2.65;;
49824;SDS011;35714;55.708;37.478;2022-11-15T12:43:53;10.85;;;2.30;;
49824;SDS011;35714;55.708;37.478;2022-11-15T13:17:39;5.13;;;1.70;;
49824;SDS011;35714;55.708;37.478;2022-11-15T13:23:07;6.15;;;1.77;;
49824;SDS011;35714;55.708;37.478;2022-11-15T13:33:48;5.95;;;2.00;;
49824;SDS011;35714;55.708;37.478;2022-11-15T13:39:32;7.38;;;2.25;;
49824;SDS011;35714;55.708;37.478;2022-11-15T13:41:58;6.85;;;2.00;;
49824;SDS011;35714;55.708;37.478;2022-11-15T13:44:30;5.55;;;2.08;;
49824;SDS011;35714;55.708;37.478;2022-11-15T13:47:18;4.88;;;1.67;;
49824;SDS011;35714;55.708;37.478;2022-11-15T13:49:44;6.90;;;1.83;;
49824;SDS011;35714;55.708;37.478;2022-11-15T13:52:12;7.85;;;2.17;;
49824;SDS011;35714;55.708;37.478;2022-11-15T13:55:25;10.77;;;2.10;;
49824;SDS011;35714;55.708;37.478;2022-11-15T13:57:32;5.72;;;1.83;;
49824;SDS011;35714;55.708;37.478;2022-11-15T14:02:52;7.55;;;1.90;;
49824;SDS011;35714;55.708;37.478;2022-11-15T14:05:21;5.53;;;1.98;;
49824;SDS011;35714;55.708;37.478;2022-11-15T14:10:39;6.20;;;2.47;;
49824;SDS011;35714;55.708;37.478;2022-11-15T14:13:10;8.90;;;2.05;;
49824;SDS011;35714;55.708;37.478;2022-11-15T14:16:11;5.63;;;1.92;;
49824;SDS011;35714;55.708;37.478;2022-11-15T14:21:15;5.93;;;2.28;;
49824;SDS011;35714;55.708;37.478;2022-11-15T14:23:42;7.35;;;2.00;;
49824;SDS011;35714;55.708;37.478;2022-11-15T14:26:28;5.65;;;2.10;;
49824;SDS011;35714;55.708;37.478;2022-11-15T14:31:48;6.60;;;2.10;;
49824;SDS011;35714;55.708;37.478;2022-11-15T14:34:14;6.97;;;2.05;;
49824;SDS011;35714;55.708;37.478;2022-11-15T14:36:40;7.97;;;1.85;;
49824;SDS011;35714;55.708;37.478;2022-11-15T14:39:05;5.97;;;1.92;;
49824;SDS011;35714;55.708;37.478;2022-11-15T14:41:34;5.75;;;2.10;;
49824;SDS011;35714;55.708;37.478;2022-11-15T14:44:03;5.03;;;2.00;;
49824;SDS011;35714;55.708;37.478;2022-11-15T14:46:30;6.15;;;1.58;;
49824;SDS011;35714;55.708;37.478;2022-11-15T14:48:56;7.20;;;2.03;;
49824;SDS011;35714;55.708;37.478;2022-11-15T14:51:21;10.48;;;1.95;;
49824;SDS011;35714;55.708;37.478;2022-11-15T14:53:47;4.05;;;1.25;;
49824;SDS011;35714;55.708;37.478;2022-11-15T14:56:13;8.07;;;1.80;;
49824;SDS011;35714;55.708;37.478;2022-11-15T14:58:40;7.22;;;2.00;;
49824;SDS011;35714;55.708;37.478;2022-11-15T15:03:52;8.13;;;2.33;;
49824;SDS011;35714;55.708;37.478;2022-11-15T15:06:21;7.30;;;2.47;;
49824;SDS011;35714;55.708;37.478;2022-11-15T15:08:47;7.60;;;2.70;;
49824;SDS011;35714;55.708;37.478;2022-11-15T15:11:21;12.00;;;3.65;;
49824;SDS011;35714;55.708;37.478;2022-11-15T15:13:49;7.50;;;3.00;;
49824;SDS011;35714;55.708;37.478;2022-11-15T15:16:15;8.88;;;3.97;;
49824;SDS011;35714;55.708;37.478;2022-11-15T15:18:41;6.57;;;2.92;;
49824;SDS011;35714;55.708;37.478;2022-11-15T15:21:23;10.30;;;3.50;;
49824;SDS011;35714;55.708;37.478;2022-11-15T15:23:50;6.05;;;2.80;;
49824;SDS011;35714;55.708;37.478;2022-11-15T15:26:17;7.30;;;2.90;;
49824;SDS011;35714;55.708;37.478;2022-11-15T15:28:43;7.20;;;2.88;;
49824;SDS011;35714;55.708;37.478;2022-11-15T15:31:09;12.00;;;3.67;;
49824;SDS011;35714;55.708;37.478;2022-11-15T15:33:36;8.98;;;3.70;;
49824;SDS011;35714;55.708;37.478;2022-11-15T15:36:02;6.88;;;3.20;;
49824;SDS011;35714;55.708;37.478;2022-11-15T15:38:28;8.32;;;2.85;;
49824;SDS011;35714;55.708;37.478;2022-11-15T15:40:54;8.63;;;3.40;;
49824;SDS011;35714;55.708;37.478;2022-11-15T15:43:20;6.90;;;3.28;;
49824;SDS011;35714;55.708;37.478;2022-11-15T15:45:46;8.25;;;2.80;;
49824;SDS011;35714;55.708;37.478;2022-11-15T15:48:12;9.63;;;3.58;;
49824;SDS011;35714;55.708;37.478;2022-11-15T15:50:39;6.28;;;2.80;;
49824;SDS011;35714;55.708;37.478;2022-11-15T15:53:08;8.75;;;2.95;;
49824;SDS011;35714;55.708;37.478;2022-11-15T15:55:35;7.15;;;2.70;;
49824;SDS011;35714;55.708;37.478;2022-11-15T15:58:02;4.85;;;2.05;;
49824;SDS011;35714;55.708;37.478;2022-11-15T16:00:28;10.32;;;3.33;;
49824;SDS011;35714;55.708;37.478;2022-11-15T16:02:54;7.28;;;2.60;;
49824;SDS011;35714;55.708;37.478;2022-11-15T16:05:21;6.80;;;2.53;;
49824;SDS011;35714;55.708;37.478;2022-11-15T16:07:47;7.80;;;3.30;;
49824;SDS011;35714;55.708;37.478;2022-11-15T16:10:20;7.93;;;2.85;;
49824;SDS011;35714;55.708;37.478;2022-11-15T16:12:51;7.15;;;3.33;;
49824;SDS011;35714;55.708;37.478;2022-11-15T16:15:17;11.82;;;3.10;;
49824;SDS011;35714;55.708;37.478;2022-11-15T16:17:47;4.60;;;2.08;;
49824;SDS011;35714;55.708;37.478;2022-11-15T16:20:35;5.72;;;2.08;;
49824;SDS011;35714;55.708;37.478;2022-11-15T16:23:08;9.52;;;3.67;;
49824;SDS011;35714;55.708;37.478;2022-11-15T16:28:17;9.47;;;5.40;;
49824;SDS011;35714;55.708;37.478;2022-11-15T16:30:47;8.07;;;4.03;;
49824;SDS011;35714;55.708;37.478;2022-11-15T16:33:14;10.35;;;3.67;;
49824;SDS011;35714;55.708;37.478;2022-11-15T16:35:40;8.77;;;4.00;;
49824;SDS011;35714;55.708;37.478;2022-11-15T16:38:08;10.05;;;3.40;;
49824;SDS011;35714;55.708;37.478;2022-11-15T16:40:40;6.43;;;3.63;;
49824;SDS011;35714;55.708;37.478;2022-11-15T16:43:06;9.25;;;4.50;;
49824;SDS011;35714;55.708;37.478;2022-11-15T16:45:33;7.85;;;3.75;;
49824;SDS011;35714;55.708;37.478;2022-11-15T16:47:59;7.15;;;3.53;;
49824;SDS011;35714;55.708;37.478;2022-11-15T16:50:27;7.78;;;3.97;;
49824;SDS011;35714;55.708;37.478;2022-11-15T16:52:55;9.35;;;3.63;;
49824;SDS011;35714;55.708;37.478;2022-11-15T16:55:23;7.63;;;3.33;;
49824;SDS011;35714;55.708;37.478;2022-11-15T16:57:56;8.55;;;4.05;;
49824;SDS011;35714;55.708;37.478;2022-11-15T17:00:26;7.40;;;3.63;;
49824;SDS011;35714;55.708;37.478;2022-11-15T17:02:52;9.65;;;3.75;;
49824;SDS011;35714;55.708;37.478;2022-11-15T17:05:19;12.15;;;4.72;;
49824;SDS011;35714;55.708;37.478;2022-11-15T17:07:47;6.90;;;3.17;;
49824;SDS011;35714;55.708;37.478;2022-11-15T17:10:14;7.10;;;3.33;;
49824;SDS011;35714;55.708;37.478;2022-11-15T17:12:41;13.23;;;4.40;;
49824;SDS011;35714;55.708;37.478;2022-11-15T17:15:06;8.60;;;4.63;;
49824;SDS011;35714;55.708;37.478;2022-11-15T17:17:32;8.27;;;3.50;;
49824;SDS011;35714;55.708;37.478;2022-11-15T17:19:58;10.30;;;4.43;;
49824;SDS011;35714;55.708;37.478;2022-11-15T17:22:24;8.88;;;3.97;;
49824;SDS011;35714;55.708;37.478;2022-11-15T17:24:50;8.05;;;4.05;;
49824;SDS011;35714;55.708;37.478;2022-11-15T17:27:15;8.63;;;3.60;;
49824;SDS011;35714;55.708;37.478;2022-11-15T17:29:41;10.02;;;4.10;;
49824;SDS011;35714;55.708;37.478;2022-11-15T17:32:07;9.07;;;3.95;;
49824;SDS011;35714;55.708;37.478;2022-11-15T17:34:33;7.97;;;3.58;;
49824;SDS011;35714;55.708;37.478;2022-11-15T17:36:59;7.05;;;4.05;;
49824;SDS011;35714;55.708;37.478;2022-11-15T17:39:25;11.25;;;3.95;;
49824;SDS011;35714;55.708;37.478;2022-11-15T17:41:51;11.07;;;4.18;;
49824;SDS011;35714;55.708;37.478;2022-11-15T17:44:16;9.05;;;3.60;;
49824;SDS011;35714;55.708;37.478;2022-11-15T17:46:42;7.85;;;4.10;;
49824;SDS011;35714;55.708;37.478;2022-11-15T17:49:08;6.47;;;3.20;;
49824;SDS011;35714;55.708;37.478;2022-11-15T17:51:34;6.57;;;2.97;;
49824;SDS011;35714;55.708;37.478;2022-11-15T17:54:00;6.03;;;3.25;;
49824;SDS011;35714;55.708;37.478;2022-11-15T17:56:26;7.13;;;3.30;;
49824;SDS011;35714;55.708;37.478;2022-11-15T17:58:57;7.97;;;3.80;;
49824;SDS011;35714;55.708;37.478;2022-11-15T18:03:55;7.60;;;3.40;;
49824;SDS011;35714;55.708;37.478;2022-11-15T18:06:24;7.30;;;3.42;;
49824;SDS011;35714;55.708;37.478;2022-11-15T18:08:51;13.82;;;3.75;;
49824;SDS011;35714;55.708;37.478;2022-11-15T18:11:24;7.88;;;3.33;;
49824;SDS011;35714;55.708;37.478;2022-11-15T18:14:13;7.97;;;4.13;;
49824;SDS011;35714;55.708;37.478;2022-11-15T18:16:38;9.60;;;4.05;;
49824;SDS011;35714;55.708;37.478;2022-11-15T18:19:04;9.13;;;3.75;;
49824;SDS011;35714;55.708;37.478;2022-11-15T18:21:35;9.55;;;3.97;;
49824;SDS011;35714;55.708;37.478;2022-11-15T18:24:24;8.93;;;3.90;;
49824;SDS011;35714;55.708;37.478;2022-11-15T18:26:52;7.28;;;3.60;;
49824;SDS011;35714;55.708;37.478;2022-11-15T18:29:18;8.68;;;3.30;;
49824;SDS011;35714;55.708;37.478;2022-11-15T18:31:44;6.65;;;3.65;;
49824;SDS011;35714;55.708;37.478;2022-11-15T18:34:10;10.25;;;4.40;;
49824;SDS011;35714;55.708;37.478;2022-11-15T18:36:36;8.57;;;4.43;;
49824;SDS011;35714;55.708;37.478;2022-11-15T18:39:03;8.38;;;3.53;;
49824;SDS011;35714;55.708;37.478;2022-11-15T18:41:29;8.23;;;3.75;;
49824;SDS011;35714;55.708;37.478;2022-11-15T18:43:57;7.30;;;3.55;;
49824;SDS011;35714;55.708;37.478;2022-11-15T18:46:26;7.70;;;3.63;;
49824;SDS011;35714;55.708;37.478;2022-11-15T18:48:54;7.38;;;3.60;;
49824;SDS011;35714;55.708;37.478;2022-11-15T18:51:24;8.25;;;3.58;;